Airfield :
LOGIN :

Register | Disclaimer

   EN    FR    IT 

 










Legend :    VFR   Marginal VFR   IFR   Intensive IFR   Very Intensive IFR
Visi :
Ceiling :
>= 8 km
>= 3000ft
5 to 8 km
1000 to 3000 ft
1500m to 5 km
500 to 1000 ft
800 to 1500m
200 to 500 ft
< 800m
< 200 ft
Symbols :   Thunderstorms  Fog  Heavy snow  Heavy precipitations  Wind > 20 kt
SIGMETs :     Misc.  Thunderstorms  Icing  Turbulence  Mountain Waves  Volcanic Ashes






- Airport Elevation : 580 ft


LFOA - Avord

CURRENT METAR :
  • 160600Z AUTO 13001KT 7000 NSC M05/M05 Q1029

EXPIRED METARs :
  • 160530Z AUTO 00000KT 7000 NSC M05/M05 Q1029
  • 160500Z AUTO 00000KT 6000 NSC M05/M05 Q1029
  • 160430Z AUTO 30002KT 4500 0600 R24/P2000 BCFG NSC M05/M05 Q1030
  • 160400Z AUTO 00000KT 6000 2500 NSC M04/M04 Q1029
  • 160330Z AUTO 00000KT 5000 BR NSC M04/M05 Q1029

TAF TAF LFOA
Valid from the 15 at 15:00 until the 16 at 15:00 UTC


151400Z 1515/1615 35010KT 9999 SCT015 BKN025 TX03/1612Z TNM03/1605Z
BECMG 1519/1521 VRB02KT
TEMPO 1602/1608 4000 BR BKN007
PROB40
TEMPO 1605/1608 0800 FZFG VV///
BECMG 1611/1613 20008KT -SN
TEMPO 1613/1615 2000 SN BKN005 OVC010



MET'MAP, your aeronautical weather chart ! - Copyright ORBIFLY December 2007 - Disclaimer

ORBIFLY MET'MAP TEAM :

Programming & Development : Alexandra Zaïnal
Concept & original design : Baudouin d'Aumeries
Assistance for programming : Marc-Olivier Méhu
Technical & hardware support : Manuel Goepfert

Contact : metmap@orbifly.com




SOURCES & CREDITS :

   NOAA